sensor_id;sensor_type;location;lat;lon;timestamp;temperature;humidity
33093;DHT22;19456;46.104;12.908;2022-07-22T00:00:34;25.50;99.90
33093;DHT22;19456;46.104;12.908;2022-07-22T00:03:00;25.50;99.90
33093;DHT22;19456;46.104;12.908;2022-07-22T00:05:25;25.50;99.90
33093;DHT22;19456;46.104;12.908;2022-07-22T00:07:51;25.50;99.90
33093;DHT22;19456;46.104;12.908;2022-07-22T00:10:16;25.40;99.90
33093;DHT22;19456;46.104;12.908;2022-07-22T00:12:42;25.40;99.90
33093;DHT22;19456;46.104;12.908;2022-07-22T00:15:07;25.40;99.90
33093;DHT22;19456;46.104;12.908;2022-07-22T00:17:33;25.30;99.90
33093;DHT22;19456;46.104;12.908;2022-07-22T00:19:59;25.30;99.90
33093;DHT22;19456;46.104;12.908;2022-07-22T00:22:25;25.30;99.90
33093;DHT22;19456;46.104;12.908;2022-07-22T00:24:50;25.30;99.90
33093;DHT22;19456;46.104;12.908;2022-07-22T00:27:16;25.40;99.90
33093;DHT22;19456;46.104;12.908;2022-07-22T00:29:41;25.40;99.90
33093;DHT22;19456;46.104;12.908;2022-07-22T00:32:07;25.40;99.90
33093;DHT22;19456;46.104;12.908;2022-07-22T00:34:32;25.30;99.90
33093;DHT22;19456;46.104;12.908;2022-07-22T00:36:58;25.10;99.90
33093;DHT22;19456;46.104;12.908;2022-07-22T00:39:23;25.20;99.90
33093;DHT22;19456;46.104;12.908;2022-07-22T00:41:49;25.20;99.90
33093;DHT22;19456;46.104;12.908;2022-07-22T00:44:15;25.20;99.90
33093;DHT22;19456;46.104;12.908;2022-07-22T00:46:40;25.20;99.90
33093;DHT22;19456;46.104;12.908;2022-07-22T00:49:06;25.20;99.90
33093;DHT22;19456;46.104;12.908;2022-07-22T00:51:32;25.20;99.90
33093;DHT22;19456;46.104;12.908;2022-07-22T00:53:58;25.10;99.90
33093;DHT22;19456;46.104;12.908;2022-07-22T00:56:24;25.00;99.90
33093;DHT22;19456;46.104;12.908;2022-07-22T00:58:50;24.90;99.90
33093;DHT22;19456;46.104;12.908;2022-07-22T01:01:16;24.80;99.90
33093;DHT22;19456;46.104;12.908;2022-07-22T01:03:42;24.60;99.90
33093;DHT22;19456;46.104;12.908;2022-07-22T01:06:07;24.60;99.90
33093;DHT22;19456;46.104;12.908;2022-07-22T01:08:33;24.60;99.90
33093;DHT22;19456;46.104;12.908;2022-07-22T01:13:33;24.50;99.90
33093;DHT22;19456;46.104;12.908;2022-07-22T01:15:59;24.40;99.90
33093;DHT22;19456;46.104;12.908;2022-07-22T01:18:25;24.60;99.90
33093;DHT22;19456;46.104;12.908;2022-07-22T01:20:50;24.70;99.90
33093;DHT22;19456;46.104;12.908;2022-07-22T01:23:16;24.70;99.90
33093;DHT22;19456;46.104;12.908;2022-07-22T01:25:41;24.50;99.90
33093;DHT22;19456;46.104;12.908;2022-07-22T01:28:07;24.40;99.90
33093;DHT22;19456;46.104;12.908;2022-07-22T01:30:32;24.20;99.90
33093;DHT22;19456;46.104;12.908;2022-07-22T01:32:58;24.10;99.90
33093;DHT22;19456;46.104;12.908;2022-07-22T01:35:23;24.20;99.90
33093;DHT22;19456;46.104;12.908;2022-07-22T01:37:49;24.20;99.90
33093;DHT22;19456;46.104;12.908;2022-07-22T01:40:14;24.20;99.90
33093;DHT22;19456;46.104;12.908;2022-07-22T01:42:40;24.30;99.90
33093;DHT22;19456;46.104;12.908;2022-07-22T01:45:06;24.30;99.90
33093;DHT22;19456;46.104;12.908;2022-07-22T01:47:32;24.30;99.90
33093;DHT22;19456;46.104;12.908;2022-07-22T01:49:57;24.40;99.90
33093;DHT22;19456;46.104;12.908;2022-07-22T01:52:23;24.40;99.90
33093;DHT22;19456;46.104;12.908;2022-07-22T01:54:48;24.40;99.90
33093;DHT22;19456;46.104;12.908;2022-07-22T01:57:14;24.30;99.90
33093;DHT22;19456;46.104;12.908;2022-07-22T01:59:39;24.30;99.90
33093;DHT22;19456;46.104;12.908;2022-07-22T02:02:05;24.10;99.90
33093;DHT22;19456;46.104;12.908;2022-07-22T02:04:30;23.90;99.90
33093;DHT22;19456;46.104;12.908;2022-07-22T02:06:56;23.90;99.90
33093;DHT22;19456;46.104;12.908;2022-07-22T02:09:21;23.90;99.90
33093;DHT22;19456;46.104;12.908;2022-07-22T02:11:47;23.70;99.90
33093;DHT22;19456;46.104;12.908;2022-07-22T02:14:12;23.90;99.90
33093;DHT22;19456;46.104;12.908;2022-07-22T02:16:38;23.90;99.90
33093;DHT22;19456;46.104;12.908;2022-07-22T02:19:04;23.90;99.90
33093;DHT22;19456;46.104;12.908;2022-07-22T02:21:29;23.90;99.90
33093;DHT22;19456;46.104;12.908;2022-07-22T02:23:55;24.10;99.90
33093;DHT22;19456;46.104;12.908;2022-07-22T02:26:20;24.20;99.90
33093;DHT22;19456;46.104;12.908;2022-07-22T02:28:46;24.30;99.90
33093;DHT22;19456;46.104;12.908;2022-07-22T02:31:12;24.40;99.90
33093;DHT22;19456;46.104;12.908;2022-07-22T02:33:37;24.60;99.90
33093;DHT22;19456;46.104;12.908;2022-07-22T02:36:03;24.50;99.90
33093;DHT22;19456;46.104;12.908;2022-07-22T02:38:28;24.30;99.90
33093;DHT22;19456;46.104;12.908;2022-07-22T02:40:54;24.20;99.90
33093;DHT22;19456;46.104;12.908;2022-07-22T02:43:20;24.10;99.90
33093;DHT22;19456;46.104;12.908;2022-07-22T02:45:45;24.20;99.90
33093;DHT22;19456;46.104;12.908;2022-07-22T02:48:11;24.30;99.90
33093;DHT22;19456;46.104;12.908;2022-07-22T02:50:36;24.30;99.90
33093;DHT22;19456;46.104;12.908;2022-07-22T02:53:03;24.20;99.90
33093;DHT22;19456;46.104;12.908;2022-07-22T02:55:28;24.20;99.90
33093;DHT22;19456;46.104;12.908;2022-07-22T02:57:54;24.00;99.90
33093;DHT22;19456;46.104;12.908;2022-07-22T03:00:19;23.90;99.90
33093;DHT22;19456;46.104;12.908;2022-07-22T03:02:45;23.80;99.90
33093;DHT22;19456;46.104;12.908;2022-07-22T03:05:11;23.70;99.90
33093;DHT22;19456;46.104;12.908;2022-07-22T03:07:37;23.60;99.90
33093;DHT22;19456;46.104;12.908;2022-07-22T03:10:03;23.70;99.90
33093;DHT22;19456;46.104;12.908;2022-07-22T03:12:29;23.60;99.90
33093;DHT22;19456;46.104;12.908;2022-07-22T03:14:55;23.50;99.90
33093;DHT22;19456;46.104;12.908;2022-07-22T03:17:20;23.50;99.90
33093;DHT22;19456;46.104;12.908;2022-07-22T03:19:46;23.50;99.90
33093;DHT22;19456;46.104;12.908;2022-07-22T03:22:11;23.40;99.90
33093;DHT22;19456;46.104;12.908;2022-07-22T03:24:37;23.20;99.90
33093;DHT22;19456;46.104;12.908;2022-07-22T03:27:02;23.20;99.90
33093;DHT22;19456;46.104;12.908;2022-07-22T03:29:28;23.10;99.90
33093;DHT22;19456;46.104;12.908;2022-07-22T03:31:53;23.10;99.90
33093;DHT22;19456;46.104;12.908;2022-07-22T03:34:19;23.00;99.90
33093;DHT22;19456;46.104;12.908;2022-07-22T03:36:45;23.10;99.90
33093;DHT22;19456;46.104;12.908;2022-07-22T03:39:10;23.10;99.90
33093;DHT22;19456;46.104;12.908;2022-07-22T03:41:36;23.30;99.90
33093;DHT22;19456;46.104;12.908;2022-07-22T03:44:01;23.30;99.90
33093;DHT22;19456;46.104;12.908;2022-07-22T03:46:27;23.40;99.90
33093;DHT22;19456;46.104;12.908;2022-07-22T03:48:52;23.50;99.90
33093;DHT22;19456;46.104;12.908;2022-07-22T03:51:18;23.50;99.90
33093;DHT22;19456;46.104;12.908;2022-07-22T03:53:43;23.50;99.90
33093;DHT22;19456;46.104;12.908;2022-07-22T03:56:09;23.50;99.90
33093;DHT22;19456;46.104;12.908;2022-07-22T03:58:34;23.10;99.90
33093;DHT22;19456;46.104;12.908;2022-07-22T04:01:00;23.10;99.90
33093;DHT22;19456;46.104;12.908;2022-07-22T04:03:25;23.10;99.90
33093;DHT22;19456;46.104;12.908;2022-07-22T04:05:51;23.20;99.90
33093;DHT22;19456;46.104;12.908;2022-07-22T04:08:17;23.30;99.90
33093;DHT22;19456;46.104;12.908;2022-07-22T04:10:43;23.50;99.90
33093;DHT22;19456;46.104;12.908;2022-07-22T04:13:08;23.50;99.90
33093;DHT22;19456;46.104;12.908;2022-07-22T04:15:34;23.50;99.90
33093;DHT22;19456;46.104;12.908;2022-07-22T04:17:59;23.60;99.90
33093;DHT22;19456;46.104;12.908;2022-07-22T04:20:25;23.60;99.90
33093;DHT22;19456;46.104;12.908;2022-07-22T04:22:51;23.70;99.90
33093;DHT22;19456;46.104;12.908;2022-07-22T04:25:16;23.70;99.90
33093;DHT22;19456;46.104;12.908;2022-07-22T04:27:42;23.80;99.90
33093;DHT22;19456;46.104;12.908;2022-07-22T04:30:07;23.70;99.90
33093;DHT22;19456;46.104;12.908;2022-07-22T04:32:33;23.70;99.90
33093;DHT22;19456;46.104;12.908;2022-07-22T04:34:58;23.70;99.90
33093;DHT22;19456;46.104;12.908;2022-07-22T04:37:24;23.80;99.90
33093;DHT22;19456;46.104;12.908;2022-07-22T04:39:50;24.00;99.90
33093;DHT22;19456;46.104;12.908;2022-07-22T04:42:15;24.00;99.90
33093;DHT22;19456;46.104;12.908;2022-07-22T04:44:41;24.10;99.90
33093;DHT22;19456;46.104;12.908;2022-07-22T04:47:06;24.10;99.90
33093;DHT22;19456;46.104;12.908;2022-07-22T04:49:32;24.10;99.90
33093;DHT22;19456;46.104;12.908;2022-07-22T04:51:57;24.20;99.90
33093;DHT22;19456;46.104;12.908;2022-07-22T04:54:23;24.10;99.90
33093;DHT22;19456;46.104;12.908;2022-07-22T04:56:49;24.10;99.90
33093;DHT22;19456;46.104;12.908;2022-07-22T04:59:14;24.20;99.90
33093;DHT22;19456;46.104;12.908;2022-07-22T05:01:40;24.20;99.90
33093;DHT22;19456;46.104;12.908;2022-07-22T05:04:05;24.30;99.90
33093;DHT22;19456;46.104;12.908;2022-07-22T05:06:31;24.30;99.90
33093;DHT22;19456;46.104;12.908;2022-07-22T05:08:56;24.40;99.90
33093;DHT22;19456;46.104;12.908;2022-07-22T05:11:22;24.70;99.90
33093;DHT22;19456;46.104;12.908;2022-07-22T05:13:47;24.70;99.90
33093;DHT22;19456;46.104;12.908;2022-07-22T05:16:13;24.70;99.90
33093;DHT22;19456;46.104;12.908;2022-07-22T05:18:39;24.80;99.90
33093;DHT22;19456;46.104;12.908;2022-07-22T05:21:05;25.00;99.90
33093;DHT22;19456;46.104;12.908;2022-07-22T05:23:30;25.00;99.90
33093;DHT22;19456;46.104;12.908;2022-07-22T05:25:56;25.00;99.90
33093;DHT22;19456;46.104;12.908;2022-07-22T05:28:21;25.20;99.90
33093;DHT22;19456;46.104;12.908;2022-07-22T05:30:47;25.30;99.90
33093;DHT22;19456;46.104;12.908;2022-07-22T05:33:12;25.50;99.90
33093;DHT22;19456;46.104;12.908;2022-07-22T05:35:38;25.60;99.90
33093;DHT22;19456;46.104;12.908;2022-07-22T05:38:04;25.70;99.90
33093;DHT22;19456;46.104;12.908;2022-07-22T05:40:31;25.90;99.90
33093;DHT22;19456;46.104;12.908;2022-07-22T05:42:57;26.10;99.90
33093;DHT22;19456;46.104;12.908;2022-07-22T05:45:23;26.20;99.90
33093;DHT22;19456;46.104;12.908;2022-07-22T05:47:48;26.30;99.90
33093;DHT22;19456;46.104;12.908;2022-07-22T05:50:14;26.30;99.90
33093;DHT22;19456;46.104;12.908;2022-07-22T05:52:39;26.40;99.90
33093;DHT22;19456;46.104;12.908;2022-07-22T05:55:05;26.60;99.90
33093;DHT22;19456;46.104;12.908;2022-07-22T05:57:31;26.70;99.90
33093;DHT22;19456;46.104;12.908;2022-07-22T05:59:57;26.90;99.90
33093;DHT22;19456;46.104;12.908;2022-07-22T06:02:22;27.30;99.90
33093;DHT22;19456;46.104;12.908;2022-07-22T06:04:48;27.30;99.90
33093;DHT22;19456;46.104;12.908;2022-07-22T06:07:13;27.50;99.90
33093;DHT22;19456;46.104;12.908;2022-07-22T06:09:39;27.60;99.90
33093;DHT22;19456;46.104;12.908;2022-07-22T06:12:04;27.70;99.90
33093;DHT22;19456;46.104;12.908;2022-07-22T06:14:30;27.90;99.90
33093;DHT22;19456;46.104;12.908;2022-07-22T06:16:56;28.00;99.90
33093;DHT22;19456;46.104;12.908;2022-07-22T06:19:21;28.20;99.90
33093;DHT22;19456;46.104;12.908;2022-07-22T06:21:47;28.40;99.90
33093;DHT22;19456;46.104;12.908;2022-07-22T06:24:12;28.70;99.90
33093;DHT22;19456;46.104;12.908;2022-07-22T06:26:38;28.90;99.90
33093;DHT22;19456;46.104;12.908;2022-07-22T06:29:03;28.80;99.90
33093;DHT22;19456;46.104;12.908;2022-07-22T06:31:29;28.70;99.90
33093;DHT22;19456;46.104;12.908;2022-07-22T06:33:54;28.70;99.90
33093;DHT22;19456;46.104;12.908;2022-07-22T06:36:20;29.00;99.90
33093;DHT22;19456;46.104;12.908;2022-07-22T06:38:46;29.00;99.90
33093;DHT22;19456;46.104;12.908;2022-07-22T06:41:11;29.10;99.90
33093;DHT22;19456;46.104;12.908;2022-07-22T06:43:38;29.20;99.90
33093;DHT22;19456;46.104;12.908;2022-07-22T06:46:04;29.70;99.90
33093;DHT22;19456;46.104;12.908;2022-07-22T06:48:29;29.90;99.90
33093;DHT22;19456;46.104;12.908;2022-07-22T06:50:55;30.10;99.90
33093;DHT22;19456;46.104;12.908;2022-07-22T06:53:21;29.90;99.90
33093;DHT22;19456;46.104;12.908;2022-07-22T06:55:46;30.00;99.90
33093;DHT22;19456;46.104;12.908;2022-07-22T06:58:12;29.90;99.90
33093;DHT22;19456;46.104;12.908;2022-07-22T07:00:38;30.00;99.90
33093;DHT22;19456;46.104;12.908;2022-07-22T07:03:03;30.10;99.90
33093;DHT22;19456;46.104;12.908;2022-07-22T07:05:29;30.20;99.90
33093;DHT22;19456;46.104;12.908;2022-07-22T07:07:55;30.30;99.90
33093;DHT22;19456;46.104;12.908;2022-07-22T07:10:21;30.40;99.90
33093;DHT22;19456;46.104;12.908;2022-07-22T07:12:47;30.50;99.90
33093;DHT22;19456;46.104;12.908;2022-07-22T07:15:12;30.40;99.90
33093;DHT22;19456;46.104;12.908;2022-07-22T07:17:38;30.40;99.90
33093;DHT22;19456;46.104;12.908;2022-07-22T07:20:04;30.60;99.90
33093;DHT22;19456;46.104;12.908;2022-07-22T07:22:30;30.80;99.90
33093;DHT22;19456;46.104;12.908;2022-07-22T07:24:55;31.10;99.90
33093;DHT22;19456;46.104;12.908;2022-07-22T07:27:21;31.00;99.90
33093;DHT22;19456;46.104;12.908;2022-07-22T07:29:46;31.00;99.90
33093;DHT22;19456;46.104;12.908;2022-07-22T07:32:12;31.10;99.90
33093;DHT22;19456;46.104;12.908;2022-07-22T07:34:37;31.20;99.90
33093;DHT22;19456;46.104;12.908;2022-07-22T07:37:03;31.30;99.90
33093;DHT22;19456;46.104;12.908;2022-07-22T07:39:29;31.50;99.90
33093;DHT22;19456;46.104;12.908;2022-07-22T07:41:54;31.70;99.90
33093;DHT22;19456;46.104;12.908;2022-07-22T07:44:20;31.70;99.90
33093;DHT22;19456;46.104;12.908;2022-07-22T07:46:46;31.70;99.90
33093;DHT22;19456;46.104;12.908;2022-07-22T07:49:11;31.80;99.60
33093;DHT22;19456;46.104;12.908;2022-07-22T07:51:37;32.00;98.80
33093;DHT22;19456;46.104;12.908;2022-07-22T07:54:02;32.00;98.90
33093;DHT22;19456;46.104;12.908;2022-07-22T07:56:28;32.10;99.10
33093;DHT22;19456;46.104;12.908;2022-07-22T07:58:53;32.00;98.10
33093;DHT22;19456;46.104;12.908;2022-07-22T08:01:19;32.10;97.80
33093;DHT22;19456;46.104;12.908;2022-07-22T08:03:44;32.20;96.30
33093;DHT22;19456;46.104;12.908;2022-07-22T08:06:10;32.30;96.10
33093;DHT22;19456;46.104;12.908;2022-07-22T08:08:36;32.60;95.00
33093;DHT22;19456;46.104;12.908;2022-07-22T08:11:01;32.80;94.10
33093;DHT22;19456;46.104;12.908;2022-07-22T08:13:27;33.00;93.70
33093;DHT22;19456;46.104;12.908;2022-07-22T08:15:52;32.80;93.40
33093;DHT22;19456;46.104;12.908;2022-07-22T08:18:18;32.90;93.30
33093;DHT22;19456;46.104;12.908;2022-07-22T08:20:43;33.00;92.40
33093;DHT22;19456;46.104;12.908;2022-07-22T08:23:09;32.90;91.60
33093;DHT22;19456;46.104;12.908;2022-07-22T08:25:34;32.90;92.30
33093;DHT22;19456;46.104;12.908;2022-07-22T08:28:00;33.00;92.00
33093;DHT22;19456;46.104;12.908;2022-07-22T08:30:25;33.20;91.80
33093;DHT22;19456;46.104;12.908;2022-07-22T08:32:54;33.30;91.50
33093;DHT22;19456;46.104;12.908;2022-07-22T08:35:19;33.30;90.90
33093;DHT22;19456;46.104;12.908;2022-07-22T08:37:45;33.20;90.70
33093;DHT22;19456;46.104;12.908;2022-07-22T08:40:12;33.30;91.50
33093;DHT22;19456;46.104;12.908;2022-07-22T08:42:39;33.30;90.90
33093;DHT22;19456;46.104;12.908;2022-07-22T08:45:05;33.30;90.20
33093;DHT22;19456;46.104;12.908;2022-07-22T08:47:30;33.20;86.60
33093;DHT22;19456;46.104;12.908;2022-07-22T08:49:56;33.10;86.40
33093;DHT22;19456;46.104;12.908;2022-07-22T08:52:22;33.30;88.70
33093;DHT22;19456;46.104;12.908;2022-07-22T08:54:47;33.40;88.90
33093;DHT22;19456;46.104;12.908;2022-07-22T08:57:13;33.40;88.10
33093;DHT22;19456;46.104;12.908;2022-07-22T09:02:35;33.70;87.30
33093;DHT22;19456;46.104;12.908;2022-07-22T09:05:04;33.80;84.70
33093;DHT22;19456;46.104;12.908;2022-07-22T09:09:56;33.90;86.80
33093;DHT22;19456;46.104;12.908;2022-07-22T09:12:22;34.00;85.80
33093;DHT22;19456;46.104;12.908;2022-07-22T09:14:49;33.90;86.00
33093;DHT22;19456;46.104;12.908;2022-07-22T09:19:53;33.80;83.00
33093;DHT22;19456;46.104;12.908;2022-07-22T09:27:44;33.80;82.50
33093;DHT22;19456;46.104;12.908;2022-07-22T09:30:11;33.90;79.00
33093;DHT22;19456;46.104;12.908;2022-07-22T09:32:40;34.00;79.80
33093;DHT22;19456;46.104;12.908;2022-07-22T09:35:06;34.10;77.40
33093;DHT22;19456;46.104;12.908;2022-07-22T09:37:36;34.20;76.90
33093;DHT22;19456;46.104;12.908;2022-07-22T09:40:15;34.40;75.30
33093;DHT22;19456;46.104;12.908;2022-07-22T09:42:45;34.20;76.10
33093;DHT22;19456;46.104;12.908;2022-07-22T09:45:11;34.30;74.90
33093;DHT22;19456;46.104;12.908;2022-07-22T09:47:36;34.20;73.10
33093;DHT22;19456;46.104;12.908;2022-07-22T09:50:03;34.20;75.30
33093;DHT22;19456;46.104;12.908;2022-07-22T09:52:28;34.00;75.20
33093;DHT22;19456;46.104;12.908;2022-07-22T09:54:54;34.20;76.30
33093;DHT22;19456;46.104;12.908;2022-07-22T09:57:19;34.40;77.20
33093;DHT22;19456;46.104;12.908;2022-07-22T09:59:45;34.50;74.90
33093;DHT22;19456;46.104;12.908;2022-07-22T10:02:10;34.50;75.30
33093;DHT22;19456;46.104;12.908;2022-07-22T10:04:37;34.70;75.10
33093;DHT22;19456;46.104;12.908;2022-07-22T10:07:03;34.90;73.90
33093;DHT22;19456;46.104;12.908;2022-07-22T10:09:29;35.00;73.90
33093;DHT22;19456;46.104;12.908;2022-07-22T10:11:55;35.10;70.70
33093;DHT22;19456;46.104;12.908;2022-07-22T10:14:21;34.80;69.80
33093;DHT22;19456;46.104;12.908;2022-07-22T10:16:46;34.80;71.60
33093;DHT22;19456;46.104;12.908;2022-07-22T10:19:13;34.90;73.00
33093;DHT22;19456;46.104;12.908;2022-07-22T10:21:38;34.90;73.20
33093;DHT22;19456;46.104;12.908;2022-07-22T10:24:11;35.00;72.90
33093;DHT22;19456;46.104;12.908;2022-07-22T10:26:53;35.10;73.90
33093;DHT22;19456;46.104;12.908;2022-07-22T10:29:24;35.40;72.40
33093;DHT22;19456;46.104;12.908;2022-07-22T10:31:49;35.20;72.20
33093;DHT22;19456;46.104;12.908;2022-07-22T10:34:15;35.30;73.60
33093;DHT22;19456;46.104;12.908;2022-07-22T10:36:41;35.60;72.50
33093;DHT22;19456;46.104;12.908;2022-07-22T10:39:09;35.80;70.20
33093;DHT22;19456;46.104;12.908;2022-07-22T10:41:41;35.90;70.20
33093;DHT22;19456;46.104;12.908;2022-07-22T10:44:07;35.80;65.90
33093;DHT22;19456;46.104;12.908;2022-07-22T10:46:52;35.50;67.30
33093;DHT22;19456;46.104;12.908;2022-07-22T10:49:19;35.20;68.30
33093;DHT22;19456;46.104;12.908;2022-07-22T10:57:32;36.30;64.90
33093;DHT22;19456;46.104;12.908;2022-07-22T10:59:58;36.50;64.80
33093;DHT22;19456;46.104;12.908;2022-07-22T11:02:23;36.40;65.30
33093;DHT22;19456;46.104;12.908;2022-07-22T11:04:51;36.60;66.20
33093;DHT22;19456;46.104;12.908;2022-07-22T11:07:16;36.70;68.80
33093;DHT22;19456;46.104;12.908;2022-07-22T11:09:42;36.70;68.30
33093;DHT22;19456;46.104;12.908;2022-07-22T11:12:12;36.70;67.90
33093;DHT22;19456;46.104;12.908;2022-07-22T11:14:37;36.80;64.30
33093;DHT22;19456;46.104;12.908;2022-07-22T11:17:07;36.90;64.10
33093;DHT22;19456;46.104;12.908;2022-07-22T11:19:33;36.70;62.80
33093;DHT22;19456;46.104;12.908;2022-07-22T11:22:00;36.80;64.00
33093;DHT22;19456;46.104;12.908;2022-07-22T11:24:27;36.70;64.30
33093;DHT22;19456;46.104;12.908;2022-07-22T11:26:53;36.70;64.60
33093;DHT22;19456;46.104;12.908;2022-07-22T11:29:29;36.90;65.10
33093;DHT22;19456;46.104;12.908;2022-07-22T11:31:57;37.40;62.00
33093;DHT22;19456;46.104;12.908;2022-07-22T11:34:23;38.00;58.10
33093;DHT22;19456;46.104;12.908;2022-07-22T11:36:49;38.10;59.90
33093;DHT22;19456;46.104;12.908;2022-07-22T11:39:18;38.50;59.80
33093;DHT22;19456;46.104;12.908;2022-07-22T11:41:44;38.80;58.40
33093;DHT22;19456;46.104;12.908;2022-07-22T11:44:09;38.60;58.20
33093;DHT22;19456;46.104;12.908;2022-07-22T11:46:39;38.20;59.20
33093;DHT22;19456;46.104;12.908;2022-07-22T11:49:05;38.80;57.50
33093;DHT22;19456;46.104;12.908;2022-07-22T11:51:31;39.40;56.20
33093;DHT22;19456;46.104;12.908;2022-07-22T11:53:57;40.00;54.70
33093;DHT22;19456;46.104;12.908;2022-07-22T11:56:23;40.20;53.00
33093;DHT22;19456;46.104;12.908;2022-07-22T11:58:49;40.50;51.00
33093;DHT22;19456;46.104;12.908;2022-07-22T12:01:16;40.80;52.10
33093;DHT22;19456;46.104;12.908;2022-07-22T12:04:17;40.60;50.80
33093;DHT22;19456;46.104;12.908;2022-07-22T12:06:35;40.20;50.90
33093;DHT22;19456;46.104;12.908;2022-07-22T12:11:33;40.90;50.60
33093;DHT22;19456;46.104;12.908;2022-07-22T12:14:04;41.20;49.40
33093;DHT22;19456;46.104;12.908;2022-07-22T12:16:30;41.60;49.80
33093;DHT22;19456;46.104;12.908;2022-07-22T12:19:03;41.50;48.90
33093;DHT22;19456;46.104;12.908;2022-07-22T12:21:30;41.70;49.20
33093;DHT22;19456;46.104;12.908;2022-07-22T12:26:37;42.10;47.00
33093;DHT22;19456;46.104;12.908;2022-07-22T12:29:16;42.10;46.30
33093;DHT22;19456;46.104;12.908;2022-07-22T12:31:43;42.20;46.00
33093;DHT22;19456;46.104;12.908;2022-07-22T12:34:08;42.60;45.90
33093;DHT22;19456;46.104;12.908;2022-07-22T12:36:34;42.60;45.30
33093;DHT22;19456;46.104;12.908;2022-07-22T12:39:10;42.70;45.70
33093;DHT22;19456;46.104;12.908;2022-07-22T12:41:43;42.60;44.80
33093;DHT22;19456;46.104;12.908;2022-07-22T12:44:14;43.00;44.50
33093;DHT22;19456;46.104;12.908;2022-07-22T12:46:50;43.10;44.30
33093;DHT22;19456;46.104;12.908;2022-07-22T12:49:17;43.00;45.10
33093;DHT22;19456;46.104;12.908;2022-07-22T12:52:03;43.10;44.10
33093;DHT22;19456;46.104;12.908;2022-07-22T12:54:28;43.00;44.70
33093;DHT22;19456;46.104;12.908;2022-07-22T12:56:54;43.40;43.80
33093;DHT22;19456;46.104;12.908;2022-07-22T12:59:19;42.90;45.60
33093;DHT22;19456;46.104;12.908;2022-07-22T13:01:45;43.00;44.90
33093;DHT22;19456;46.104;12.908;2022-07-22T13:04:10;43.00;44.30
33093;DHT22;19456;46.104;12.908;2022-07-22T13:06:36;43.20;44.00
33093;DHT22;19456;46.104;12.908;2022-07-22T13:09:01;43.40;43.60
33093;DHT22;19456;46.104;12.908;2022-07-22T13:11:27;43.30;43.10
33093;DHT22;19456;46.104;12.908;2022-07-22T13:13:52;43.20;43.70
33093;DHT22;19456;46.104;12.908;2022-07-22T13:16:18;43.30;44.10
33093;DHT22;19456;46.104;12.908;2022-07-22T13:18:43;43.60;43.90
33093;DHT22;19456;46.104;12.908;2022-07-22T13:21:09;43.20;42.70
33093;DHT22;19456;46.104;12.908;2022-07-22T13:23:35;43.20;42.50
33093;DHT22;19456;46.104;12.908;2022-07-22T13:26:00;43.20;43.40
33093;DHT22;19456;46.104;12.908;2022-07-22T13:28:26;43.10;43.40
33093;DHT22;19456;46.104;12.908;2022-07-22T13:30:51;43.30;43.70
33093;DHT22;19456;46.104;12.908;2022-07-22T13:33:17;43.10;43.80
33093;DHT22;19456;46.104;12.908;2022-07-22T13:35:42;42.70;44.70
33093;DHT22;19456;46.104;12.908;2022-07-22T13:38:08;42.80;44.90
33093;DHT22;19456;46.104;12.908;2022-07-22T13:40:34;43.20;44.40
33093;DHT22;19456;46.104;12.908;2022-07-22T13:42:59;43.30;44.10
33093;DHT22;19456;46.104;12.908;2022-07-22T13:45:25;43.10;43.90
33093;DHT22;19456;46.104;12.908;2022-07-22T13:47:50;42.80;44.70
33093;DHT22;19456;46.104;12.908;2022-07-22T13:50:16;43.00;44.10
33093;DHT22;19456;46.104;12.908;2022-07-22T13:52:41;42.10;45.10
33093;DHT22;19456;46.104;12.908;2022-07-22T13:55:11;42.00;44.70
33093;DHT22;19456;46.104;12.908;2022-07-22T13:57:37;41.70;44.70
33093;DHT22;19456;46.104;12.908;2022-07-22T14:00:05;41.80;45.30
33093;DHT22;19456;46.104;12.908;2022-07-22T14:02:32;42.00;44.90
33093;DHT22;19456;46.104;12.908;2022-07-22T14:04:57;41.90;45.10
33093;DHT22;19456;46.104;12.908;2022-07-22T14:07:23;41.90;45.00
33093;DHT22;19456;46.104;12.908;2022-07-22T14:09:49;42.30;44.90
33093;DHT22;19456;46.104;12.908;2022-07-22T14:12:14;43.00;44.20
33093;DHT22;19456;46.104;12.908;2022-07-22T14:14:40;42.80;44.70
33093;DHT22;19456;46.104;12.908;2022-07-22T14:17:05;42.40;44.80
33093;DHT22;19456;46.104;12.908;2022-07-22T14:19:31;42.30;44.70
33093;DHT22;19456;46.104;12.908;2022-07-22T14:21:56;42.80;44.50
33093;DHT22;19456;46.104;12.908;2022-07-22T14:24:22;42.10;45.00
33093;DHT22;19456;46.104;12.908;2022-07-22T14:26:48;42.00;45.50
33093;DHT22;19456;46.104;12.908;2022-07-22T14:29:13;42.30;45.20
33093;DHT22;19456;46.104;12.908;2022-07-22T14:31:39;41.80;45.40
33093;DHT22;19456;46.104;12.908;2022-07-22T14:34:04;42.30;45.70
33093;DHT22;19456;46.104;12.908;2022-07-22T14:36:30;42.40;45.50
33093;DHT22;19456;46.104;12.908;2022-07-22T14:38:56;42.50;45.10
33093;DHT22;19456;46.104;12.908;2022-07-22T14:41:21;41.80;45.60
33093;DHT22;19456;46.104;12.908;2022-07-22T14:43:47;42.30;45.90
33093;DHT22;19456;46.104;12.908;2022-07-22T14:46:12;42.50;45.40
33093;DHT22;19456;46.104;12.908;2022-07-22T14:48:38;42.70;45.10
33093;DHT22;19456;46.104;12.908;2022-07-22T14:51:04;42.80;45.30
33093;DHT22;19456;46.104;12.908;2022-07-22T14:53:30;41.80;45.70
33093;DHT22;19456;46.104;12.908;2022-07-22T14:55:55;41.70;46.50
33093;DHT22;19456;46.104;12.908;2022-07-22T14:58:21;42.40;45.80
33093;DHT22;19456;46.104;12.908;2022-07-22T15:00:47;42.80;45.70
33093;DHT22;19456;46.104;12.908;2022-07-22T15:03:12;43.00;45.30
33093;DHT22;19456;46.104;12.908;2022-07-22T15:05:38;42.30;45.40
33093;DHT22;19456;46.104;12.908;2022-07-22T15:08:06;42.80;45.80
33093;DHT22;19456;46.104;12.908;2022-07-22T15:10:32;43.30;45.20
33093;DHT22;19456;46.104;12.908;2022-07-22T15:12:57;42.90;45.00
33093;DHT22;19456;46.104;12.908;2022-07-22T15:15:23;42.20;45.70
33093;DHT22;19456;46.104;12.908;2022-07-22T15:17:48;42.50;45.50
33093;DHT22;19456;46.104;12.908;2022-07-22T15:20:15;43.20;45.20
33093;DHT22;19456;46.104;12.908;2022-07-22T15:22:41;43.20;44.80
33093;DHT22;19456;46.104;12.908;2022-07-22T15:25:06;42.60;45.80
33093;DHT22;19456;46.104;12.908;2022-07-22T15:27:32;42.80;45.50
33093;DHT22;19456;46.104;12.908;2022-07-22T15:29:58;42.90;45.50
33093;DHT22;19456;46.104;12.908;2022-07-22T15:32:23;42.80;45.40
33093;DHT22;19456;46.104;12.908;2022-07-22T15:34:49;42.70;45.50